THY115 USRR-LTAC
Flight info
| Callsign | THY115 |
|---|---|
| Flight time | N/A |
| Altitude | 40000 |
| Route | ANIKI1W ANIKI T764 DILUP T173 IBSIL T764 MAKEM P135 KR G900 OBABI/K0917F410 G900 KUTON/K0902F400 G900 ODIRA/N0483F400 UW96 SIN UT61 BAG DCT |
| Aircraft | A350/H-SDE3FGHIRWY/LB1 |
Departure
| Time | 2026-04-30 04:42 |
|---|---|
| Airport | Surgut International Airport (USRR) |
Arrival
| Time | N/A |
|---|---|
| Airport | Esenboğa International Airport (LTAC) |
| Time | Latitude | Longitude | Altitude | Speed | Heading |
|---|---|---|---|---|---|
| 2026-04-30 04:29 | 61.34119 | 73.40699 | 224 ft | 0 kts | 176° |
| 2026-04-30 04:30 | 61.34125 | 73.40699 | 224 ft | 3 kts | 176° |
| 2026-04-30 04:30 | 61.34144 | 73.40692 | 224 ft | 3 kts | 157° |
| 2026-04-30 04:30 | 61.34162 | 73.40671 | 225 ft | 3 kts | 136° |
| 2026-04-30 04:30 | 61.34175 | 73.40639 | 221 ft | 3 kts | 115° |
| 2026-04-30 04:31 | 61.34181 | 73.40601 | 221 ft | 3 kts | 95° |
| 2026-04-30 04:31 | 61.34181 | 73.40592 | 224 ft | 0 kts | 92° |
| 2026-04-30 04:32 | 61.34181 | 73.40591 | 224 ft | 0 kts | 92° |
| 2026-04-30 04:37 | 61.34181 | 73.40590 | 224 ft | 0 kts | 92° |
| 2026-04-30 04:37 | 61.34181 | 73.40592 | 224 ft | 1 kts | 92° |
| 2026-04-30 04:37 | 61.34181 | 73.40669 | 218 ft | 10 kts | 91° |
| 2026-04-30 04:37 | 61.34180 | 73.40802 | 219 ft | 10 kts | 90° |
| 2026-04-30 04:38 | 61.34179 | 73.40997 | 214 ft | 16 kts | 90° |
| 2026-04-30 04:38 | 61.34182 | 73.41237 | 217 ft | 18 kts | 86° |
| 2026-04-30 04:38 | 61.34185 | 73.41504 | 221 ft | 19 kts | 89° |
| 2026-04-30 04:38 | 61.34188 | 73.41796 | 214 ft | 21 kts | 89° |
| 2026-04-30 04:39 | 61.34190 | 73.42106 | 214 ft | 17 kts | 89° |
| 2026-04-30 04:39 | 61.34193 | 73.42329 | 214 ft | 9 kts | 84° |
| 2026-04-30 04:39 | 61.34220 | 73.42467 | 218 ft | 12 kts | 47° |
| 2026-04-30 04:39 | 61.34251 | 73.42516 | 221 ft | 0 kts | 33° |
| 2026-04-30 04:40 | 61.34275 | 73.42545 | 219 ft | 9 kts | 30° |
| 2026-04-30 04:40 | 61.34361 | 73.42636 | 214 ft | 16 kts | 8° |
| 2026-04-30 04:41 | 61.34397 | 73.42473 | 216 ft | 18 kts | 268° |
| 2026-04-30 04:41 | 61.34392 | 73.41881 | 213 ft | 70 kts | 269° |
| 2026-04-30 04:41 | 61.34393 | 73.40422 | 211 ft | 133 kts | 270° |
| 2026-04-30 04:41 | 61.34390 | 73.38153 | 436 ft | 164 kts | 270° |
| 2026-04-30 04:42 | 61.34402 | 73.35917 | 1430 ft | 147 kts | 271° |
| 2026-04-30 04:42 | 61.34476 | 73.33679 | 1950 ft | 163 kts | 272° |
| 2026-04-30 04:42 | 61.34105 | 73.31357 | 2215 ft | 186 kts | 231° |
| 2026-04-30 04:42 | 61.33030 | 73.29544 | 2455 ft | 213 kts | 224° |
| 2026-04-30 04:43 | 61.32418 | 73.27860 | 2639 ft | 227 kts | 243° |
| 2026-04-30 04:43 | 61.31721 | 73.24788 | 3159 ft | 241 kts | 248° |
| 2026-04-30 04:43 | 61.31039 | 73.21536 | 3890 ft | 248 kts | 247° |
| 2026-04-30 04:43 | 61.30096 | 73.17165 | 4947 ft | 253 kts | 247° |
| 2026-04-30 04:44 | 61.29599 | 73.14899 | 5453 ft | 256 kts | 246° |
| 2026-04-30 04:44 | 61.28852 | 73.11518 | 6265 ft | 259 kts | 246° |
| 2026-04-30 04:44 | 61.28101 | 73.08149 | 7084 ft | 262 kts | 246° |
| 2026-04-30 04:44 | 61.27317 | 73.04646 | 7945 ft | 265 kts | 246° |
| 2026-04-30 04:45 | 61.26533 | 73.01151 | 8785 ft | 269 kts | 246° |
| 2026-04-30 04:45 | 61.25737 | 72.97613 | 9601 ft | 272 kts | 246° |
| 2026-04-30 04:45 | 61.24927 | 72.94017 | 10373 ft | 279 kts | 246° |
| 2026-04-30 04:45 | 61.24075 | 72.90237 | 10779 ft | 299 kts | 246° |
| 2026-04-30 04:46 | 61.23162 | 72.86197 | 11164 ft | 319 kts | 246° |
| 2026-04-30 04:46 | 61.22192 | 72.81913 | 11528 ft | 337 kts | 245° |
| 2026-04-30 04:46 | 61.21175 | 72.77441 | 12071 ft | 348 kts | 245° |
| 2026-04-30 04:46 | 61.20131 | 72.72853 | 12743 ft | 354 kts | 245° |
| 2026-04-30 04:47 | 61.19071 | 72.68211 | 13440 ft | 359 kts | 245° |
| 2026-04-30 04:47 | 61.17992 | 72.63493 | 14136 ft | 363 kts | 245° |
| 2026-04-30 04:47 | 61.16902 | 72.58740 | 14824 ft | 367 kts | 245° |
| 2026-04-30 04:47 | 61.15798 | 72.53932 | 15504 ft | 371 kts | 245° |
| 2026-04-30 04:48 | 61.14683 | 72.49087 | 16165 ft | 375 kts | 245° |
| 2026-04-30 04:48 | 61.13552 | 72.44189 | 16812 ft | 379 kts | 245° |
| 2026-04-30 04:48 | 61.12408 | 72.39238 | 17456 ft | 383 kts | 245° |
| 2026-04-30 04:48 | 61.11252 | 72.34250 | 18098 ft | 387 kts | 245° |
| 2026-04-30 04:49 | 61.10081 | 72.29209 | 18746 ft | 390 kts | 245° |
| 2026-04-30 04:49 | 61.08911 | 72.24187 | 19379 ft | 394 kts | 245° |
| 2026-04-30 04:49 | 61.07716 | 72.19065 | 20015 ft | 398 kts | 245° |
| 2026-04-30 04:49 | 61.06506 | 72.13894 | 20640 ft | 402 kts | 245° |
| 2026-04-30 04:50 | 61.05283 | 72.08679 | 21249 ft | 406 kts | 245° |
| 2026-04-30 04:50 | 61.04045 | 72.03412 | 21835 ft | 409 kts | 245° |
| 2026-04-30 04:50 | 61.02777 | 71.98034 | 22422 ft | 413 kts | 245° |
| 2026-04-30 04:50 | 61.01529 | 71.92748 | 22977 ft | 417 kts | 245° |
| 2026-04-30 04:51 | 61.00253 | 71.87359 | 23523 ft | 420 kts | 244° |
| 2026-04-30 04:51 | 60.98950 | 71.81933 | 24089 ft | 424 kts | 244° |
| 2026-04-30 04:51 | 60.97570 | 71.76531 | 24612 ft | 428 kts | 242° |
| 2026-04-30 04:51 | 60.96120 | 71.71060 | 25146 ft | 432 kts | 242° |
| 2026-04-30 04:52 | 60.94681 | 71.65692 | 25628 ft | 435 kts | 242° |
| 2026-04-30 04:52 | 60.93198 | 71.60159 | 26150 ft | 438 kts | 242° |
| 2026-04-30 04:52 | 60.91724 | 71.54635 | 26643 ft | 442 kts | 242° |
| 2026-04-30 04:52 | 60.90246 | 71.49073 | 27100 ft | 445 kts | 242° |
| 2026-04-30 04:53 | 60.88758 | 71.43463 | 27578 ft | 448 kts | 242° |
| 2026-04-30 04:53 | 60.87262 | 71.37820 | 28034 ft | 451 kts | 242° |
| 2026-04-30 04:53 | 60.85755 | 71.32144 | 28472 ft | 454 kts | 242° |
| 2026-04-30 04:53 | 60.84241 | 71.26438 | 28899 ft | 458 kts | 242° |
| 2026-04-30 04:54 | 60.82731 | 71.20760 | 29306 ft | 461 kts | 242° |
| 2026-04-30 04:54 | 60.81187 | 71.14979 | 29712 ft | 464 kts | 242° |
| 2026-04-30 04:54 | 60.79633 | 71.09173 | 30090 ft | 466 kts | 242° |
| 2026-04-30 04:54 | 60.78067 | 71.03342 | 30465 ft | 469 kts | 242° |
| 2026-04-30 04:55 | 60.76489 | 70.97482 | 30824 ft | 472 kts | 242° |
| 2026-04-30 04:55 | 60.74899 | 70.91591 | 31165 ft | 474 kts | 242° |
| 2026-04-30 04:55 | 60.73296 | 70.85668 | 31481 ft | 477 kts | 242° |
| 2026-04-30 04:55 | 60.71684 | 70.79727 | 31800 ft | 479 kts | 242° |
| 2026-04-30 04:56 | 60.70062 | 70.73763 | 32088 ft | 482 kts | 242° |
| 2026-04-30 04:56 | 60.68428 | 70.67769 | 32378 ft | 484 kts | 242° |
| 2026-04-30 04:56 | 60.66789 | 70.61776 | 32767 ft | 483 kts | 241° |
| 2026-04-30 04:56 | 60.65152 | 70.55805 | 33190 ft | 482 kts | 241° |
| 2026-04-30 04:57 | 60.63513 | 70.49844 | 33573 ft | 481 kts | 241° |
| 2026-04-30 04:57 | 60.61856 | 70.43933 | 33958 ft | 481 kts | 239° |
| 2026-04-30 04:57 | 60.60076 | 70.38160 | 34322 ft | 480 kts | 237° |
| 2026-04-30 04:57 | 60.58231 | 70.32510 | 34664 ft | 479 kts | 237° |
| 2026-04-30 04:58 | 60.56367 | 70.26902 | 35014 ft | 479 kts | 237° |
| 2026-04-30 04:58 | 60.54504 | 70.21288 | 35329 ft | 478 kts | 237° |
| 2026-04-30 04:58 | 60.52676 | 70.15741 | 35651 ft | 478 kts | 237° |
| 2026-04-30 04:58 | 60.50816 | 70.10052 | 35947 ft | 477 kts | 237° |
| 2026-04-30 04:59 | 60.49014 | 70.04515 | 36229 ft | 477 kts | 237° |
| 2026-04-30 04:59 | 60.47193 | 69.98910 | 36500 ft | 477 kts | 237° |
| 2026-04-30 04:59 | 60.45365 | 69.93291 | 36756 ft | 477 kts | 237° |
| 2026-04-30 04:59 | 60.43540 | 69.87688 | 37008 ft | 477 kts | 237° |
| 2026-04-30 05:00 | 60.41713 | 69.82097 | 37256 ft | 476 kts | 237° |
| 2026-04-30 05:00 | 60.39883 | 69.76510 | 37490 ft | 476 kts | 237° |
| 2026-04-30 05:00 | 60.38051 | 69.70935 | 37731 ft | 476 kts | 237° |
| 2026-04-30 05:00 | 60.36211 | 69.65349 | 37935 ft | 476 kts | 237° |
| 2026-04-30 05:01 | 60.34371 | 69.59777 | 38160 ft | 477 kts | 237° |
| 2026-04-30 05:01 | 60.32525 | 69.54210 | 38354 ft | 477 kts | 237° |
| 2026-04-30 05:01 | 60.30683 | 69.48669 | 38555 ft | 477 kts | 237° |
| 2026-04-30 05:01 | 60.28832 | 69.43112 | 38751 ft | 477 kts | 237° |
| 2026-04-30 05:02 | 60.26983 | 69.37573 | 38942 ft | 477 kts | 237° |
| 2026-04-30 05:02 | 60.25130 | 69.32034 | 39123 ft | 477 kts | 237° |
| 2026-04-30 05:02 | 60.23274 | 69.26500 | 39301 ft | 477 kts | 237° |
| 2026-04-30 05:02 | 60.21417 | 69.20975 | 39484 ft | 477 kts | 237° |
| 2026-04-30 05:03 | 60.19556 | 69.15452 | 39634 ft | 477 kts | 237° |
| 2026-04-30 05:03 | 60.17689 | 69.09927 | 39796 ft | 477 kts | 237° |
| 2026-04-30 05:03 | 60.15847 | 69.04484 | 39946 ft | 477 kts | 236° |
| 2026-04-30 05:04 | 60.12099 | 68.93454 | 40000 ft | 479 kts | 236° |
| 2026-04-30 05:04 | 60.08340 | 68.82444 | 40000 ft | 478 kts | 236° |
| 2026-04-30 05:05 | 60.04572 | 68.71460 | 40001 ft | 478 kts | 236° |
| 2026-04-30 05:05 | 60.00798 | 68.60508 | 40001 ft | 478 kts | 236° |
| 2026-04-30 05:06 | 59.95116 | 68.44117 | 40001 ft | 478 kts | 236° |
| 2026-04-30 05:06 | 59.91317 | 68.33219 | 40001 ft | 478 kts | 236° |
| 2026-04-30 05:07 | 59.87502 | 68.22344 | 40000 ft | 479 kts | 236° |
| 2026-04-30 05:07 | 59.83675 | 68.11502 | 40000 ft | 479 kts | 236° |
| 2026-04-30 05:08 | 59.79863 | 68.00751 | 39999 ft | 479 kts | 236° |
| 2026-04-30 05:08 | 59.76019 | 67.89955 | 39999 ft | 479 kts | 235° |
| 2026-04-30 05:09 | 59.72167 | 67.79182 | 40001 ft | 479 kts | 235° |
| 2026-04-30 05:09 | 59.68307 | 67.68439 | 40001 ft | 479 kts | 235° |
| 2026-04-30 05:10 | 59.64437 | 67.57717 | 39999 ft | 479 kts | 235° |
| 2026-04-30 05:10 | 59.60565 | 67.47038 | 40000 ft | 479 kts | 235° |
| 2026-04-30 05:11 | 59.56676 | 67.36360 | 40002 ft | 479 kts | 235° |
| 2026-04-30 05:11 | 59.52786 | 67.25728 | 39999 ft | 479 kts | 235° |
| 2026-04-30 05:12 | 59.48902 | 67.15159 | 39999 ft | 479 kts | 235° |
| 2026-04-30 05:12 | 59.44962 | 67.04489 | 40000 ft | 479 kts | 234° |
| 2026-04-30 05:13 | 59.41067 | 66.93985 | 40002 ft | 479 kts | 234° |
| 2026-04-30 05:13 | 59.37141 | 66.83447 | 40000 ft | 479 kts | 234° |
| 2026-04-30 05:14 | 59.33232 | 66.72862 | 40001 ft | 479 kts | 235° |
| 2026-04-30 05:14 | 59.29402 | 66.62208 | 40000 ft | 479 kts | 236° |
| 2026-04-30 05:15 | 59.25540 | 66.51507 | 40001 ft | 484 kts | 235° |
| 2026-04-30 05:15 | 59.21650 | 66.40835 | 39999 ft | 480 kts | 235° |
| 2026-04-30 05:16 | 59.17770 | 66.30264 | 39999 ft | 479 kts | 235° |
| 2026-04-30 05:16 | 59.13877 | 66.19709 | 40000 ft | 479 kts | 235° |
| 2026-04-30 05:17 | 59.09985 | 66.09202 | 40001 ft | 479 kts | 235° |
| 2026-04-30 05:17 | 59.06079 | 65.98700 | 39999 ft | 479 kts | 235° |
| 2026-04-30 05:18 | 59.02190 | 65.88292 | 40001 ft | 479 kts | 234° |
| 2026-04-30 05:18 | 58.98244 | 65.77777 | 39999 ft | 479 kts | 234° |
| 2026-04-30 05:19 | 58.94336 | 65.67410 | 40000 ft | 479 kts | 234° |
| 2026-04-30 05:19 | 58.90350 | 65.56880 | 40001 ft | 485 kts | 234° |
| 2026-04-30 05:20 | 58.86328 | 65.46304 | 40000 ft | 490 kts | 234° |
| 2026-04-30 05:20 | 58.82291 | 65.35738 | 39999 ft | 493 kts | 234° |
| 2026-04-30 05:21 | 58.78214 | 65.25113 | 40000 ft | 493 kts | 234° |
| 2026-04-30 05:21 | 58.74120 | 65.14492 | 40002 ft | 493 kts | 234° |
| 2026-04-30 05:22 | 58.70027 | 65.03921 | 40000 ft | 493 kts | 234° |
| 2026-04-30 05:22 | 58.65917 | 64.93354 | 39999 ft | 493 kts | 234° |
| 2026-04-30 05:23 | 58.61795 | 64.82804 | 40001 ft | 493 kts | 234° |
| 2026-04-30 05:23 | 58.57651 | 64.72337 | 39999 ft | 493 kts | 233° |
| 2026-04-30 05:24 | 58.53425 | 64.61990 | 40001 ft | 493 kts | 232° |
| 2026-04-30 05:24 | 58.49182 | 64.51670 | 39999 ft | 493 kts | 232° |
| 2026-04-30 05:25 | 58.44941 | 64.41358 | 40000 ft | 493 kts | 232° |
| 2026-04-30 05:25 | 58.41417 | 64.32805 | 40000 ft | 493 kts | 232° |
| 2026-04-30 05:26 | 58.37170 | 64.22532 | 39999 ft | 493 kts | 232° |
| 2026-04-30 05:26 | 58.32907 | 64.12266 | 39999 ft | 493 kts | 232° |
| 2026-04-30 05:27 | 58.28641 | 64.02040 | 40000 ft | 493 kts | 232° |
| 2026-04-30 05:27 | 58.24323 | 63.91906 | 39999 ft | 494 kts | 231° |
| 2026-04-30 05:28 | 58.19853 | 63.82012 | 39999 ft | 494 kts | 230° |
| 2026-04-30 05:28 | 58.15396 | 63.72225 | 40000 ft | 489 kts | 230° |
| 2026-04-30 05:29 | 58.11011 | 63.62553 | 40000 ft | 481 kts | 230° |
| 2026-04-30 05:29 | 58.06709 | 63.52926 | 39999 ft | 479 kts | 231° |
| 2026-04-30 05:30 | 58.02460 | 63.43219 | 40001 ft | 479 kts | 231° |
| 2026-04-30 05:30 | 57.98198 | 63.33524 | 39999 ft | 480 kts | 231° |
| 2026-04-30 05:31 | 57.93922 | 63.23878 | 40001 ft | 480 kts | 231° |
| 2026-04-30 05:31 | 57.89631 | 63.14258 | 39999 ft | 480 kts | 231° |
| 2026-04-30 05:32 | 57.85337 | 63.04669 | 39999 ft | 480 kts | 231° |
| 2026-04-30 05:32 | 57.81029 | 62.95089 | 40000 ft | 479 kts | 231° |
| 2026-04-30 05:33 | 57.76748 | 62.85607 | 39999 ft | 479 kts | 231° |
| 2026-04-30 05:33 | 57.72427 | 62.76072 | 40000 ft | 480 kts | 230° |
| 2026-04-30 05:34 | 57.68091 | 62.66592 | 40001 ft | 480 kts | 230° |
| 2026-04-30 05:34 | 57.63730 | 62.57157 | 40001 ft | 480 kts | 230° |
| 2026-04-30 05:35 | 57.59364 | 62.47743 | 40002 ft | 480 kts | 230° |
| 2026-04-30 05:35 | 57.54990 | 62.38342 | 40000 ft | 480 kts | 230° |
| 2026-04-30 05:36 | 57.50612 | 62.28965 | 40001 ft | 481 kts | 230° |
| 2026-04-30 05:36 | 57.46179 | 62.19505 | 40001 ft | 488 kts | 230° |
| 2026-04-30 05:37 | 57.41700 | 62.09976 | 40001 ft | 492 kts | 230° |
| 2026-04-30 05:37 | 57.37206 | 62.00449 | 40000 ft | 494 kts | 230° |
| 2026-04-30 05:38 | 57.32663 | 61.90861 | 39999 ft | 494 kts | 229° |
| 2026-04-30 05:38 | 57.27957 | 61.81556 | 40003 ft | 495 kts | 227° |
| 2026-04-30 05:39 | 57.23163 | 61.72432 | 40000 ft | 495 kts | 227° |
| 2026-04-30 05:39 | 57.18379 | 61.63292 | 39999 ft | 495 kts | 227° |
| 2026-04-30 05:40 | 57.13613 | 61.54138 | 40002 ft | 495 kts | 227° |
| 2026-04-30 05:40 | 57.08847 | 61.44994 | 39999 ft | 495 kts | 227° |
| 2026-04-30 05:41 | 57.04071 | 61.35867 | 40002 ft | 495 kts | 227° |
| 2026-04-30 05:41 | 56.99292 | 61.26774 | 40000 ft | 495 kts | 227° |
| 2026-04-30 05:42 | 56.94501 | 61.17698 | 40000 ft | 495 kts | 227° |
| 2026-04-30 05:42 | 56.89709 | 61.08649 | 40001 ft | 495 kts | 227° |
| 2026-04-30 05:43 | 56.84911 | 60.99582 | 40001 ft | 495 kts | 227° |
| 2026-04-30 05:43 | 56.80109 | 60.90544 | 39999 ft | 496 kts | 227° |
| 2026-04-30 05:44 | 56.75281 | 60.81503 | 39999 ft | 485 kts | 226° |
| 2026-04-30 05:44 | 56.70481 | 60.72710 | 39999 ft | 481 kts | 225° |
| 2026-04-30 05:45 | 56.65670 | 60.64240 | 40000 ft | 482 kts | 225° |
| 2026-04-30 05:45 | 56.60878 | 60.55842 | 40000 ft | 482 kts | 225° |
| 2026-04-30 05:46 | 56.56109 | 60.47315 | 39999 ft | 482 kts | 226° |